sensor_id;sensor_type;location;lat;lon;timestamp;pressure;altitude;pressure_sealevel;temperature;humidity
4570;BME280;2297;51.442;6.996;2023-03-13T00:00:25;99152.50;;;10.40;51.67
4570;BME280;2297;51.442;6.996;2023-03-13T00:02:51;99135.34;;;10.30;52.07
4570;BME280;2297;51.442;6.996;2023-03-13T00:05:19;99143.75;;;10.16;52.85
4570;BME280;2297;51.442;6.996;2023-03-13T00:07:46;99132.16;;;10.44;52.07
4570;BME280;2297;51.442;6.996;2023-03-13T00:12:39;99128.16;;;10.56;52.35
4570;BME280;2297;51.442;6.996;2023-03-13T00:15:07;99114.47;;;10.68;52.05
4570;BME280;2297;51.442;6.996;2023-03-13T00:17:33;99112.78;;;10.67;52.75
4570;BME280;2297;51.442;6.996;2023-03-13T00:20:00;99109.00;;;10.73;52.74
4570;BME280;2297;51.442;6.996;2023-03-13T00:22:29;99100.13;;;10.75;52.72
4570;BME280;2297;51.442;6.996;2023-03-13T00:24:56;99103.44;;;11.01;52.01
4570;BME280;2297;51.442;6.996;2023-03-13T00:27:23;99096.88;;;11.11;52.04
4570;BME280;2297;51.442;6.996;2023-03-13T00:29:49;99085.34;;;10.92;52.94
4570;BME280;2297;51.442;6.996;2023-03-13T00:32:16;99083.50;;;10.94;53.10
4570;BME280;2297;51.442;6.996;2023-03-13T00:34:43;99081.41;;;10.80;53.28
4570;BME280;2297;51.442;6.996;2023-03-13T00:37:09;99083.16;;;10.81;53.79
4570;BME280;2297;51.442;6.996;2023-03-13T00:39:37;99069.53;;;10.47;54.72
4570;BME280;2297;51.442;6.996;2023-03-13T00:42:04;99059.28;;;10.62;54.37
4570;BME280;2297;51.442;6.996;2023-03-13T00:44:31;99061.41;;;10.74;53.92
4570;BME280;2297;51.442;6.996;2023-03-13T00:46:58;99061.69;;;11.09;53.01
4570;BME280;2297;51.442;6.996;2023-03-13T00:49:24;99058.91;;;10.92;53.89
4570;BME280;2297;51.442;6.996;2023-03-13T00:51:51;99054.47;;;11.14;53.20
4570;BME280;2297;51.442;6.996;2023-03-13T00:54:18;99054.63;;;10.69;54.78
4570;BME280;2297;51.442;6.996;2023-03-13T00:56:46;99048.66;;;10.63;55.54
4570;BME280;2297;51.442;6.996;2023-03-13T00:59:12;99036.47;;;11.02;54.47
4570;BME280;2297;51.442;6.996;2023-03-13T01:01:39;99028.03;;;11.14;54.73
4570;BME280;2297;51.442;6.996;2023-03-13T01:04:08;99017.06;;;10.82;56.00
4570;BME280;2297;51.442;6.996;2023-03-13T01:06:36;99004.25;;;10.94;55.79
4570;BME280;2297;51.442;6.996;2023-03-13T01:09:06;98995.47;;;10.93;56.02
4570;BME280;2297;51.442;6.996;2023-03-13T01:11:34;98993.56;;;10.97;56.24
4570;BME280;2297;51.442;6.996;2023-03-13T01:14:04;98992.03;;;10.71;57.08
4570;BME280;2297;51.442;6.996;2023-03-13T01:16:33;98984.94;;;10.51;58.14
4570;BME280;2297;51.442;6.996;2023-03-13T01:19:03;98994.28;;;10.37;58.75
4570;BME280;2297;51.442;6.996;2023-03-13T01:21:31;98987.13;;;10.19;59.71
4570;BME280;2297;51.442;6.996;2023-03-13T01:23:57;98979.94;;;9.76;61.90
4570;BME280;2297;51.442;6.996;2023-03-13T01:26:25;98980.56;;;10.29;61.09
4570;BME280;2297;51.442;6.996;2023-03-13T01:28:53;98963.25;;;10.22;61.20
4570;BME280;2297;51.442;6.996;2023-03-13T01:31:22;98967.91;;;10.37;61.45
4570;BME280;2297;51.442;6.996;2023-03-13T01:33:52;98971.22;;;9.98;62.44
4570;BME280;2297;51.442;6.996;2023-03-13T01:36:19;98961.56;;;10.21;62.20
4570;BME280;2297;51.442;6.996;2023-03-13T01:38:47;98937.53;;;10.27;62.16
4570;BME280;2297;51.442;6.996;2023-03-13T01:41:14;98942.78;;;10.06;62.34
4570;BME280;2297;51.442;6.996;2023-03-13T01:43:41;98928.88;;;10.23;62.11
4570;BME280;2297;51.442;6.996;2023-03-13T01:46:13;98936.63;;;10.28;62.48
4570;BME280;2297;51.442;6.996;2023-03-13T01:48:48;98928.41;;;10.13;63.40
4570;BME280;2297;51.442;6.996;2023-03-13T01:51:21;98919.34;;;9.98;64.16
4570;BME280;2297;51.442;6.996;2023-03-13T01:53:52;98914.53;;;9.64;64.78
4570;BME280;2297;51.442;6.996;2023-03-13T01:56:23;98909.78;;;9.96;64.42
4570;BME280;2297;51.442;6.996;2023-03-13T01:58:54;98898.84;;;10.05;64.67
4570;BME280;2297;51.442;6.996;2023-03-13T02:01:23;98887.94;;;10.14;64.18
4570;BME280;2297;51.442;6.996;2023-03-13T02:03:51;98892.34;;;9.92;65.40
4570;BME280;2297;51.442;6.996;2023-03-13T02:06:18;98882.91;;;9.64;66.59
4570;BME280;2297;51.442;6.996;2023-03-13T02:08:48;98889.03;;;9.87;65.84
4570;BME280;2297;51.442;6.996;2023-03-13T02:11:22;98865.88;;;9.95;65.59
4570;BME280;2297;51.442;6.996;2023-03-13T02:13:50;98861.69;;;9.89;65.89
4570;BME280;2297;51.442;6.996;2023-03-13T02:16:19;98852.22;;;9.39;67.81
4570;BME280;2297;51.442;6.996;2023-03-13T02:18:47;98842.00;;;9.98;66.28
4570;BME280;2297;51.442;6.996;2023-03-13T02:21:24;98841.69;;;9.84;66.61
4570;BME280;2297;51.442;6.996;2023-03-13T02:23:59;98831.69;;;9.92;66.66
4570;BME280;2297;51.442;6.996;2023-03-13T02:26:29;98831.03;;;9.64;67.36
4570;BME280;2297;51.442;6.996;2023-03-13T02:28:56;98810.69;;;9.68;67.82
4570;BME280;2297;51.442;6.996;2023-03-13T02:31:23;98801.66;;;9.74;68.04
4570;BME280;2297;51.442;6.996;2023-03-13T02:33:52;98809.19;;;9.61;68.55
4570;BME280;2297;51.442;6.996;2023-03-13T02:36:20;98813.06;;;9.74;67.68
4570;BME280;2297;51.442;6.996;2023-03-13T02:38:52;98800.97;;;9.91;67.49
4570;BME280;2297;51.442;6.996;2023-03-13T02:41:20;98790.88;;;9.58;68.56
4570;BME280;2297;51.442;6.996;2023-03-13T02:43:49;98785.91;;;9.72;68.05
4570;BME280;2297;51.442;6.996;2023-03-13T02:46:17;98784.56;;;9.62;68.27
4570;BME280;2297;51.442;6.996;2023-03-13T02:48:46;98779.81;;;9.70;68.41
4570;BME280;2297;51.442;6.996;2023-03-13T02:51:17;98771.88;;;9.92;67.41
4570;BME280;2297;51.442;6.996;2023-03-13T02:53:47;98767.13;;;9.80;68.45
4570;BME280;2297;51.442;6.996;2023-03-13T02:56:15;98770.47;;;9.63;69.04
4570;BME280;2297;51.442;6.996;2023-03-13T02:58:43;98763.19;;;9.90;68.09
4570;BME280;2297;51.442;6.996;2023-03-13T03:01:11;98762.78;;;9.79;68.52
4570;BME280;2297;51.442;6.996;2023-03-13T03:03:38;98764.22;;;9.65;69.30
4570;BME280;2297;51.442;6.996;2023-03-13T03:06:05;98753.34;;;9.73;68.80
4570;BME280;2297;51.442;6.996;2023-03-13T03:08:33;98753.53;;;9.69;69.65
4570;BME280;2297;51.442;6.996;2023-03-13T03:11:00;98740.19;;;9.73;69.11
4570;BME280;2297;51.442;6.996;2023-03-13T03:13:27;98726.91;;;9.97;68.43
4570;BME280;2297;51.442;6.996;2023-03-13T03:15:53;98732.78;;;9.81;68.89
4570;BME280;2297;51.442;6.996;2023-03-13T03:18:21;98729.34;;;9.79;69.92
4570;BME280;2297;51.442;6.996;2023-03-13T03:20:48;98716.69;;;9.67;70.08
4570;BME280;2297;51.442;6.996;2023-03-13T03:23:15;98721.19;;;9.65;70.42
4570;BME280;2297;51.442;6.996;2023-03-13T03:25:41;98728.00;;;9.48;71.07
4570;BME280;2297;51.442;6.996;2023-03-13T03:28:08;98722.88;;;9.66;71.22
4570;BME280;2297;51.442;6.996;2023-03-13T03:30:35;98721.50;;;9.78;70.79
4570;BME280;2297;51.442;6.996;2023-03-13T03:33:02;98715.25;;;9.80;70.45
4570;BME280;2297;51.442;6.996;2023-03-13T03:35:30;98704.19;;;9.93;69.91
4570;BME280;2297;51.442;6.996;2023-03-13T03:37:58;98721.19;;;9.65;71.09
4570;BME280;2297;51.442;6.996;2023-03-13T03:40:25;98716.94;;;9.61;71.14
4570;BME280;2297;51.442;6.996;2023-03-13T03:42:52;98708.94;;;10.05;69.95
4570;BME280;2297;51.442;6.996;2023-03-13T03:45:19;98700.75;;;9.91;70.56
4570;BME280;2297;51.442;6.996;2023-03-13T03:47:45;98701.41;;;9.75;70.97
4570;BME280;2297;51.442;6.996;2023-03-13T03:50:12;98703.41;;;10.11;69.73
4570;BME280;2297;51.442;6.996;2023-03-13T03:52:40;98714.06;;;10.08;70.21
4570;BME280;2297;51.442;6.996;2023-03-13T03:55:07;98710.84;;;10.02;70.57
4570;BME280;2297;51.442;6.996;2023-03-13T03:57:34;98710.00;;;10.01;71.31
4570;BME280;2297;51.442;6.996;2023-03-13T04:00:01;98708.06;;;10.05;71.01
4570;BME280;2297;51.442;6.996;2023-03-13T04:02:27;98715.31;;;10.20;70.91
4570;BME280;2297;51.442;6.996;2023-03-13T04:04:54;98725.78;;;10.22;70.75
4570;BME280;2297;51.442;6.996;2023-03-13T04:07:21;98728.91;;;10.11;71.76
4570;BME280;2297;51.442;6.996;2023-03-13T04:09:49;98727.75;;;10.37;70.33
4570;BME280;2297;51.442;6.996;2023-03-13T04:12:15;98709.56;;;10.31;70.58
4570;BME280;2297;51.442;6.996;2023-03-13T04:14:42;98720.41;;;10.25;71.26
4570;BME280;2297;51.442;6.996;2023-03-13T04:17:09;98728.19;;;10.07;71.47
4570;BME280;2297;51.442;6.996;2023-03-13T04:19:35;98709.59;;;10.10;71.62
4570;BME280;2297;51.442;6.996;2023-03-13T04:22:02;98708.56;;;9.94;71.80
4570;BME280;2297;51.442;6.996;2023-03-13T04:24:28;98702.84;;;10.24;71.24
4570;BME280;2297;51.442;6.996;2023-03-13T04:26:59;98725.53;;;9.87;72.76
4570;BME280;2297;51.442;6.996;2023-03-13T04:29:27;98681.25;;;9.95;72.55
4570;BME280;2297;51.442;6.996;2023-03-13T04:31:54;98696.16;;;9.96;72.93
4570;BME280;2297;51.442;6.996;2023-03-13T04:34:21;98673.41;;;9.93;72.68
4570;BME280;2297;51.442;6.996;2023-03-13T04:36:47;98685.06;;;10.08;72.35
4570;BME280;2297;51.442;6.996;2023-03-13T04:39:14;98689.19;;;10.14;71.94
4570;BME280;2297;51.442;6.996;2023-03-13T04:41:40;98679.59;;;10.32;71.54
4570;BME280;2297;51.442;6.996;2023-03-13T04:44:08;98688.59;;;10.28;72.27
4570;BME280;2297;51.442;6.996;2023-03-13T04:46:35;98682.00;;;10.18;71.60
4570;BME280;2297;51.442;6.996;2023-03-13T04:49:02;98676.41;;;10.25;71.77
4570;BME280;2297;51.442;6.996;2023-03-13T04:51:28;98674.06;;;10.38;71.25
4570;BME280;2297;51.442;6.996;2023-03-13T04:53:55;98680.31;;;10.55;70.63
4570;BME280;2297;51.442;6.996;2023-03-13T04:56:23;98676.06;;;10.33;71.60
4570;BME280;2297;51.442;6.996;2023-03-13T04:58:50;98674.78;;;10.61;70.50
4570;BME280;2297;51.442;6.996;2023-03-13T05:01:18;98679.91;;;10.64;70.42
4570;BME280;2297;51.442;6.996;2023-03-13T05:03:45;98668.19;;;10.51;70.97
4570;BME280;2297;51.442;6.996;2023-03-13T05:06:12;98666.63;;;10.85;70.04
4570;BME280;2297;51.442;6.996;2023-03-13T05:08:39;98659.69;;;10.63;71.11
4570;BME280;2297;51.442;6.996;2023-03-13T05:11:05;98656.00;;;11.04;69.96
4570;BME280;2297;51.442;6.996;2023-03-13T05:13:32;98666.28;;;10.91;70.39
4570;BME280;2297;51.442;6.996;2023-03-13T05:15:59;98654.06;;;10.71;71.36
4570;BME280;2297;51.442;6.996;2023-03-13T05:18:27;98642.31;;;10.95;70.83
4570;BME280;2297;51.442;6.996;2023-03-13T05:20:54;98647.75;;;10.92;70.91
4570;BME280;2297;51.442;6.996;2023-03-13T05:23:21;98640.69;;;10.93;71.12
4570;BME280;2297;51.442;6.996;2023-03-13T05:25:48;98645.06;;;10.75;72.50
4570;BME280;2297;51.442;6.996;2023-03-13T05:28:15;98649.34;;;10.77;71.89
4570;BME280;2297;51.442;6.996;2023-03-13T05:30:41;98647.66;;;10.76;72.51
4570;BME280;2297;51.442;6.996;2023-03-13T05:33:08;98656.50;;;10.75;72.74
4570;BME280;2297;51.442;6.996;2023-03-13T05:35:36;98651.69;;;10.84;72.61
4570;BME280;2297;51.442;6.996;2023-03-13T05:38:03;98652.50;;;10.86;72.83
4570;BME280;2297;51.442;6.996;2023-03-13T05:40:30;98646.66;;;11.33;70.93
4570;BME280;2297;51.442;6.996;2023-03-13T05:42:56;98653.16;;;10.89;71.68
4570;BME280;2297;51.442;6.996;2023-03-13T05:45:24;98646.72;;;11.14;71.59
4570;BME280;2297;51.442;6.996;2023-03-13T05:47:51;98651.47;;;11.25;71.56
4570;BME280;2297;51.442;6.996;2023-03-13T05:50:17;98644.31;;;11.62;69.69
4570;BME280;2297;51.442;6.996;2023-03-13T05:52:45;98644.31;;;11.62;69.33
4570;BME280;2297;51.442;6.996;2023-03-13T05:55:12;98644.81;;;11.35;70.89
4570;BME280;2297;51.442;6.996;2023-03-13T05:57:39;98657.22;;;11.33;70.62
4570;BME280;2297;51.442;6.996;2023-03-13T06:00:10;98633.59;;;11.12;71.59
4570;BME280;2297;51.442;6.996;2023-03-13T06:02:37;98629.19;;;10.94;72.52
4570;BME280;2297;51.442;6.996;2023-03-13T06:05:05;98632.97;;;11.42;71.08
4570;BME280;2297;51.442;6.996;2023-03-13T06:07:31;98642.38;;;11.66;69.54
4570;BME280;2297;51.442;6.996;2023-03-13T06:10:00;98624.75;;;11.31;70.27
4570;BME280;2297;51.442;6.996;2023-03-13T06:12:26;98614.19;;;11.31;70.86
4570;BME280;2297;51.442;6.996;2023-03-13T06:14:53;98608.91;;;11.13;71.30
4570;BME280;2297;51.442;6.996;2023-03-13T06:17:20;98634.22;;;11.35;70.70
4570;BME280;2297;51.442;6.996;2023-03-13T06:19:46;98614.81;;;11.36;70.69
4570;BME280;2297;51.442;6.996;2023-03-13T06:22:15;98641.69;;;11.27;70.54
4570;BME280;2297;51.442;6.996;2023-03-13T06:24:42;98617.59;;;11.16;70.78
4570;BME280;2297;51.442;6.996;2023-03-13T06:27:12;98617.91;;;11.44;70.05
4570;BME280;2297;51.442;6.996;2023-03-13T06:29:39;98616.81;;;11.48;69.43
4570;BME280;2297;51.442;6.996;2023-03-13T06:32:06;98615.63;;;11.88;68.44
4570;BME280;2297;51.442;6.996;2023-03-13T06:34:32;98623.56;;;12.05;67.32
4570;BME280;2297;51.442;6.996;2023-03-13T06:36:59;98613.84;;;11.55;69.18
4570;BME280;2297;51.442;6.996;2023-03-13T06:39:26;98614.31;;;11.63;68.59
4570;BME280;2297;51.442;6.996;2023-03-13T06:41:53;98630.41;;;11.58;68.12
4570;BME280;2297;51.442;6.996;2023-03-13T06:44:21;98627.19;;;11.69;68.17
4570;BME280;2297;51.442;6.996;2023-03-13T06:46:47;98624.84;;;11.80;67.83
4570;BME280;2297;51.442;6.996;2023-03-13T06:49:14;98624.16;;;11.77;67.57
4570;BME280;2297;51.442;6.996;2023-03-13T06:51:40;98637.63;;;11.72;67.53
4570;BME280;2297;51.442;6.996;2023-03-13T06:54:07;98644.78;;;11.70;67.79
4570;BME280;2297;51.442;6.996;2023-03-13T06:56:34;98632.91;;;11.95;67.30
4570;BME280;2297;51.442;6.996;2023-03-13T06:59:00;98653.28;;;11.93;66.78
4570;BME280;2297;51.442;6.996;2023-03-13T07:01:28;98641.50;;;12.16;66.27
4570;BME280;2297;51.442;6.996;2023-03-13T07:03:55;98640.22;;;11.90;67.06
4570;BME280;2297;51.442;6.996;2023-03-13T07:06:22;98650.59;;;11.94;66.43
4570;BME280;2297;51.442;6.996;2023-03-13T07:08:48;98616.34;;;11.91;66.36
4570;BME280;2297;51.442;6.996;2023-03-13T07:11:15;98622.88;;;12.18;66.03
4570;BME280;2297;51.442;6.996;2023-03-13T07:13:42;98647.25;;;11.91;66.27
4570;BME280;2297;51.442;6.996;2023-03-13T07:16:10;98641.06;;;11.90;66.00
4570;BME280;2297;51.442;6.996;2023-03-13T07:18:39;98651.16;;;12.00;66.40
4570;BME280;2297;51.442;6.996;2023-03-13T07:21:09;98622.16;;;11.98;65.89
4570;BME280;2297;51.442;6.996;2023-03-13T07:23:35;98625.53;;;12.18;65.24
4570;BME280;2297;51.442;6.996;2023-03-13T07:26:04;98615.84;;;12.01;65.65
4570;BME280;2297;51.442;6.996;2023-03-13T07:28:32;98616.25;;;11.93;65.86
4570;BME280;2297;51.442;6.996;2023-03-13T07:31:06;98625.25;;;12.24;64.90
4570;BME280;2297;51.442;6.996;2023-03-13T07:33:33;98617.28;;;12.06;65.13
4570;BME280;2297;51.442;6.996;2023-03-13T07:36:02;98621.75;;;12.06;64.85
4570;BME280;2297;51.442;6.996;2023-03-13T07:38:29;98632.50;;;12.03;65.11
4570;BME280;2297;51.442;6.996;2023-03-13T07:40:56;98612.16;;;12.21;64.06
4570;BME280;2297;51.442;6.996;2023-03-13T07:43:24;98599.78;;;12.37;63.61
4570;BME280;2297;51.442;6.996;2023-03-13T07:45:52;98593.56;;;12.22;64.03
4570;BME280;2297;51.442;6.996;2023-03-13T07:48:19;98597.06;;;12.39;63.78
4570;BME280;2297;51.442;6.996;2023-03-13T07:50:46;98599.88;;;12.36;63.33
4570;BME280;2297;51.442;6.996;2023-03-13T07:53:15;98590.66;;;12.27;62.97
4570;BME280;2297;51.442;6.996;2023-03-13T07:55:51;98591.50;;;12.27;62.88
4570;BME280;2297;51.442;6.996;2023-03-13T07:58:18;98588.94;;;12.26;62.64
4570;BME280;2297;51.442;6.996;2023-03-13T08:00:45;98595.06;;;12.10;62.98
4570;BME280;2297;51.442;6.996;2023-03-13T08:03:12;98608.47;;;12.23;62.31
4570;BME280;2297;51.442;6.996;2023-03-13T08:05:39;98599.50;;;12.74;61.06
4570;BME280;2297;51.442;6.996;2023-03-13T08:08:05;98605.09;;;12.37;61.89
4570;BME280;2297;51.442;6.996;2023-03-13T08:10:33;98596.41;;;12.18;62.45
4570;BME280;2297;51.442;6.996;2023-03-13T08:13:00;98600.28;;;12.76;60.61
4570;BME280;2297;51.442;6.996;2023-03-13T08:15:27;98599.38;;;12.29;61.19
4570;BME280;2297;51.442;6.996;2023-03-13T08:17:54;98589.72;;;12.60;60.35
4570;BME280;2297;51.442;6.996;2023-03-13T08:20:21;98579.25;;;12.89;59.86
4570;BME280;2297;51.442;6.996;2023-03-13T08:22:47;98615.78;;;12.52;60.48
4570;BME280;2297;51.442;6.996;2023-03-13T08:25:15;98604.91;;;12.56;60.23
4570;BME280;2297;51.442;6.996;2023-03-13T08:27:43;98588.44;;;12.35;60.34
4570;BME280;2297;51.442;6.996;2023-03-13T08:30:10;98576.97;;;12.67;60.24
4570;BME280;2297;51.442;6.996;2023-03-13T08:32:37;98593.44;;;12.88;59.21
4570;BME280;2297;51.442;6.996;2023-03-13T08:35:04;98590.19;;;12.83;59.50
4570;BME280;2297;51.442;6.996;2023-03-13T08:37:31;98603.78;;;12.60;60.00
4570;BME280;2297;51.442;6.996;2023-03-13T08:39:58;98600.50;;;13.03;58.82
4570;BME280;2297;51.442;6.996;2023-03-13T08:42:24;98616.78;;;13.27;58.03
4570;BME280;2297;51.442;6.996;2023-03-13T08:44:52;98609.25;;;12.73;59.13
4570;BME280;2297;51.442;6.996;2023-03-13T08:47:19;98603.59;;;12.95;59.40
4570;BME280;2297;51.442;6.996;2023-03-13T08:49:45;98601.19;;;12.91;59.14
4570;BME280;2297;51.442;6.996;2023-03-13T08:52:37;98607.91;;;13.12;58.77
4570;BME280;2297;51.442;6.996;2023-03-13T08:55:04;98605.16;;;12.84;59.46
4570;BME280;2297;51.442;6.996;2023-03-13T08:57:31;98616.41;;;13.03;58.72
4570;BME280;2297;51.442;6.996;2023-03-13T08:59:59;98611.09;;;13.03;59.30
4570;BME280;2297;51.442;6.996;2023-03-13T09:02:25;98598.41;;;13.08;58.80
4570;BME280;2297;51.442;6.996;2023-03-13T09:04:52;98617.78;;;12.78;60.05
4570;BME280;2297;51.442;6.996;2023-03-13T09:07:19;98595.84;;;13.23;58.79
4570;BME280;2297;51.442;6.996;2023-03-13T09:09:45;98608.16;;;13.24;58.49
4570;BME280;2297;51.442;6.996;2023-03-13T09:12:12;98590.44;;;12.94;59.77
4570;BME280;2297;51.442;6.996;2023-03-13T09:14:38;98588.53;;;12.96;59.51
4570;BME280;2297;51.442;6.996;2023-03-13T09:17:06;98586.72;;;13.12;59.17
4570;BME280;2297;51.442;6.996;2023-03-13T09:19:33;98576.97;;;13.43;58.54
4570;BME280;2297;51.442;6.996;2023-03-13T09:22:00;98587.53;;;13.29;58.68
4570;BME280;2297;51.442;6.996;2023-03-13T09:24:26;98583.03;;;13.60;58.58
4570;BME280;2297;51.442;6.996;2023-03-13T09:26:53;98575.31;;;13.26;59.35
4570;BME280;2297;51.442;6.996;2023-03-13T09:29:20;98583.59;;;13.51;59.09
4570;BME280;2297;51.442;6.996;2023-03-13T09:31:46;98597.03;;;13.17;60.33
4570;BME280;2297;51.442;6.996;2023-03-13T09:34:14;98578.38;;;13.19;60.29
4570;BME280;2297;51.442;6.996;2023-03-13T09:36:41;98567.25;;;13.28;60.03
4570;BME280;2297;51.442;6.996;2023-03-13T09:39:07;98569.84;;;13.13;61.88
4570;BME280;2297;51.442;6.996;2023-03-13T09:41:38;98565.00;;;13.36;61.53
4570;BME280;2297;51.442;6.996;2023-03-13T09:44:13;98567.84;;;13.03;62.10
4570;BME280;2297;51.442;6.996;2023-03-13T09:46:47;98573.53;;;13.41;61.13
4570;BME280;2297;51.442;6.996;2023-03-13T09:49:27;98575.09;;;12.99;63.59
4570;BME280;2297;51.442;6.996;2023-03-13T09:52:00;98562.91;;;13.27;63.85
4570;BME280;2297;51.442;6.996;2023-03-13T09:54:33;98552.44;;;12.63;66.09
4570;BME280;2297;51.442;6.996;2023-03-13T09:57:09;98543.72;;;13.07;64.41
4570;BME280;2297;51.442;6.996;2023-03-13T09:59:44;98549.56;;;12.98;64.53
4570;BME280;2297;51.442;6.996;2023-03-13T10:02:21;98539.38;;;13.06;64.02
4570;BME280;2297;51.442;6.996;2023-03-13T10:04:56;98548.63;;;13.13;63.88
4570;BME280;2297;51.442;6.996;2023-03-13T10:07:26;98557.81;;;13.38;63.03
4570;BME280;2297;51.442;6.996;2023-03-13T10:09:52;98554.69;;;13.01;64.07
4570;BME280;2297;51.442;6.996;2023-03-13T10:12:20;98545.00;;;12.70;64.41
4570;BME280;2297;51.442;6.996;2023-03-13T10:14:56;98545.59;;;13.05;63.67
4570;BME280;2297;51.442;6.996;2023-03-13T10:17:31;98530.38;;;13.09;63.44
4570;BME280;2297;51.442;6.996;2023-03-13T10:20:07;98528.47;;;13.70;61.93
4570;BME280;2297;51.442;6.996;2023-03-13T10:22:37;98510.69;;;13.58;61.39
4570;BME280;2297;51.442;6.996;2023-03-13T10:25:07;98509.22;;;13.81;60.50
4570;BME280;2297;51.442;6.996;2023-03-13T10:27:42;98500.03;;;13.87;59.79
4570;BME280;2297;51.442;6.996;2023-03-13T10:30:19;98501.13;;;14.26;58.95
4570;BME280;2297;51.442;6.996;2023-03-13T10:32:47;98490.09;;;14.32;58.53
4570;BME280;2297;51.442;6.996;2023-03-13T10:35:22;98492.41;;;14.09;58.86
4570;BME280;2297;51.442;6.996;2023-03-13T10:37:49;98494.69;;;14.01;58.90
4570;BME280;2297;51.442;6.996;2023-03-13T10:40:26;98487.63;;;13.87;58.93
4570;BME280;2297;51.442;6.996;2023-03-13T10:43:01;98491.31;;;13.85;58.29
4570;BME280;2297;51.442;6.996;2023-03-13T10:45:32;98478.41;;;13.93;58.47
4570;BME280;2297;51.442;6.996;2023-03-13T10:48:02;98498.22;;;14.02;58.30
4570;BME280;2297;51.442;6.996;2023-03-13T10:50:33;98494.53;;;14.32;57.06
4570;BME280;2297;51.442;6.996;2023-03-13T10:53:20;98477.13;;;13.86;58.62
4570;BME280;2297;51.442;6.996;2023-03-13T10:55:47;98476.28;;;14.27;57.21
4570;BME280;2297;51.442;6.996;2023-03-13T10:58:18;98477.81;;;14.02;57.68
4570;BME280;2297;51.442;6.996;2023-03-13T11:00:46;98459.69;;;14.23;57.30
4570;BME280;2297;51.442;6.996;2023-03-13T11:03:15;98472.78;;;14.12;56.34
4570;BME280;2297;51.442;6.996;2023-03-13T11:05:53;98446.53;;;14.22;56.20
4570;BME280;2297;51.442;6.996;2023-03-13T11:08:23;98451.09;;;14.60;55.37
4570;BME280;2297;51.442;6.996;2023-03-13T11:10:55;98507.13;;;14.01;56.33
4570;BME280;2297;51.442;6.996;2023-03-13T11:13:32;98455.09;;;14.53;55.38
4570;BME280;2297;51.442;6.996;2023-03-13T11:19:41;98459.97;;;14.46;54.04
4570;BME280;2297;51.442;6.996;2023-03-13T11:22:39;98457.19;;;14.88;52.94
4570;BME280;2297;51.442;6.996;2023-03-13T11:25:19;98458.47;;;14.95;52.94
4570;BME280;2297;51.442;6.996;2023-03-13T11:27:54;98449.59;;;14.56;53.81
4570;BME280;2297;51.442;6.996;2023-03-13T11:30:35;98453.69;;;14.74;53.10
4570;BME280;2297;51.442;6.996;2023-03-13T11:33:12;98447.31;;;14.90;52.64
4570;BME280;2297;51.442;6.996;2023-03-13T11:35:46;98440.81;;;14.81;52.65
4570;BME280;2297;51.442;6.996;2023-03-13T11:38:17;98421.28;;;15.34;51.57
4570;BME280;2297;51.442;6.996;2023-03-13T11:40:53;98435.28;;;15.10;51.43
4570;BME280;2297;51.442;6.996;2023-03-13T11:43:32;98404.13;;;15.51;50.66
4570;BME280;2297;51.442;6.996;2023-03-13T11:46:15;98390.13;;;15.23;50.61
4570;BME280;2297;51.442;6.996;2023-03-13T11:48:56;98394.38;;;15.38;48.98
4570;BME280;2297;51.442;6.996;2023-03-13T11:51:28;98398.34;;;15.20;49.12
4570;BME280;2297;51.442;6.996;2023-03-13T11:54:21;98397.63;;;15.55;48.37
4570;BME280;2297;51.442;6.996;2023-03-13T11:56:55;98388.81;;;15.41;48.25
4570;BME280;2297;51.442;6.996;2023-03-13T11:59:33;98369.75;;;15.85;46.90
4570;BME280;2297;51.442;6.996;2023-03-13T12:02:08;98384.28;;;15.92;46.85
4570;BME280;2297;51.442;6.996;2023-03-13T12:04:42;98379.47;;;15.10;46.64
4570;BME280;2297;51.442;6.996;2023-03-13T12:07:19;98366.94;;;14.99;47.25
4570;BME280;2297;51.442;6.996;2023-03-13T12:09:52;98361.25;;;15.79;45.74
4570;BME280;2297;51.442;6.996;2023-03-13T12:12:31;98374.59;;;15.91;45.43
4570;BME280;2297;51.442;6.996;2023-03-13T12:15:06;98357.03;;;15.64;46.04
4570;BME280;2297;51.442;6.996;2023-03-13T12:17:43;98366.19;;;15.73;46.14
4570;BME280;2297;51.442;6.996;2023-03-13T12:20:18;98380.84;;;15.41;46.86
4570;BME280;2297;51.442;6.996;2023-03-13T12:22:51;98355.03;;;15.05;47.24
4570;BME280;2297;51.442;6.996;2023-03-13T12:25:23;98341.66;;;15.80;45.58
4570;BME280;2297;51.442;6.996;2023-03-13T12:27:52;98350.84;;;15.76;45.55
4570;BME280;2297;51.442;6.996;2023-03-13T12:30:28;98346.88;;;15.58;46.52
4570;BME280;2297;51.442;6.996;2023-03-13T12:33:02;98346.63;;;15.61;46.68
4570;BME280;2297;51.442;6.996;2023-03-13T12:35:31;98351.00;;;15.25;47.01
4570;BME280;2297;51.442;6.996;2023-03-13T12:38:02;98333.25;;;15.12;47.24
4570;BME280;2297;51.442;6.996;2023-03-13T12:40:36;98345.03;;;15.34;46.66
4570;BME280;2297;51.442;6.996;2023-03-13T12:43:10;98324.09;;;15.54;45.95
4570;BME280;2297;51.442;6.996;2023-03-13T12:45:50;98328.53;;;15.29;46.34
4570;BME280;2297;51.442;6.996;2023-03-13T12:51:32;98335.25;;;15.09;48.51
4570;BME280;2297;51.442;6.996;2023-03-13T12:54:12;98318.63;;;15.31;48.26
4570;BME280;2297;51.442;6.996;2023-03-13T12:59:46;98304.56;;;15.42;47.95
4570;BME280;2297;51.442;6.996;2023-03-13T13:02:18;98288.50;;;15.43;47.29
4570;BME280;2297;51.442;6.996;2023-03-13T13:04:47;98282.56;;;15.64;46.68
4570;BME280;2297;51.442;6.996;2023-03-13T13:07:21;98303.88;;;15.14;47.57
4570;BME280;2297;51.442;6.996;2023-03-13T13:10:13;98279.72;;;15.30;47.61
4570;BME280;2297;51.442;6.996;2023-03-13T13:12:43;98278.16;;;15.52;47.02
4570;BME280;2297;51.442;6.996;2023-03-13T13:15:16;98292.78;;;15.57;46.56
4570;BME280;2297;51.442;6.996;2023-03-13T13:17:54;98279.84;;;15.53;45.77
4570;BME280;2297;51.442;6.996;2023-03-13T13:20:42;98258.72;;;15.38;45.94
4570;BME280;2297;51.442;6.996;2023-03-13T13:23:33;98258.72;;;15.62;45.54
4570;BME280;2297;51.442;6.996;2023-03-13T13:32:42;98261.63;;;16.30;44.33
4570;BME280;2297;51.442;6.996;2023-03-13T13:35:21;98258.22;;;16.17;44.35
4570;BME280;2297;51.442;6.996;2023-03-13T13:37:49;98276.59;;;15.85;45.28
4570;BME280;2297;51.442;6.996;2023-03-13T13:40:22;98253.63;;;15.84;46.23
4570;BME280;2297;51.442;6.996;2023-03-13T13:42:53;98242.97;;;15.84;46.17
4570;BME280;2297;51.442;6.996;2023-03-13T13:45:25;98255.34;;;15.96;45.41
4570;BME280;2297;51.442;6.996;2023-03-13T13:51:33;98266.34;;;15.91;45.61
4570;BME280;2297;51.442;6.996;2023-03-13T13:54:02;98227.06;;;15.71;46.42
4570;BME280;2297;51.442;6.996;2023-03-13T13:56:33;98235.13;;;15.58;46.36
4570;BME280;2297;51.442;6.996;2023-03-13T13:59:05;98239.09;;;15.88;45.84